PROFILE

 METAR AND TAF INFORMATION
ADDS - METARS form results

(1520 UTC 22 January 2019)
http://aviationweather.gov/metar/data/
 
GOBD 221500Z 05013KT CAVOK 29/M02 Q1013 NOSIG
GOBD 221430Z 05012KT CAVOK 28/M01 Q1014 NOSIG
TAF GOBD 221130Z 2212/2318 03015KT CAVOK 

 AIRPORT MAP

 RUNWAY INFORMATION

 AIRPORT FREQUENCIES

 AIRPORT NEAR NAVIGATION AIDS